createdAt,value
2018-06-02T00:01:08.295Z,17.63
2018-06-02T00:03:35.776Z,14.70
2018-06-02T00:06:03.998Z,14.97
2018-06-02T00:08:31.472Z,18.13
2018-06-02T00:10:59.465Z,17.73
2018-06-02T00:13:26.958Z,15.83
2018-06-02T00:15:54.433Z,17.43
2018-06-02T00:18:22.714Z,14.10
2018-06-02T00:20:50.191Z,17.00
2018-06-02T00:23:22.561Z,13.93
2018-06-02T00:25:50.077Z,13.77
2018-06-02T00:28:18.325Z,15.90
2018-06-02T00:30:45.798Z,12.77
2018-06-02T00:33:14.131Z,12.43
2018-06-02T00:35:41.579Z,18.27
2018-06-02T00:38:09.060Z,12.60
2018-06-02T00:40:36.545Z,10.60
2018-06-02T00:43:04.792Z,15.17
2018-06-02T00:45:33.171Z,9.30
2018-06-02T00:48:00.621Z,12.27
2018-06-02T00:50:28.104Z,9.60
2018-06-02T00:52:55.574Z,9.60
2018-06-02T00:55:23.818Z,8.47
2018-06-02T00:57:51.253Z,11.97
2018-06-02T01:00:18.715Z,9.70
2018-06-02T01:02:46.802Z,10.10
2018-06-02T01:05:14.271Z,10.17
2018-06-02T01:07:41.739Z,10.27
2018-06-02T01:10:09.182Z,9.50
2018-06-02T01:12:36.853Z,9.37
2018-06-02T01:15:05.994Z,6.77
2018-06-02T01:17:34.151Z,8.00
2018-06-02T01:20:01.649Z,9.70
2018-06-02T01:22:29.278Z,8.90
2018-06-02T01:24:56.920Z,9.53
2018-06-02T01:27:25.153Z,9.70
2018-06-02T01:29:52.614Z,10.13
2018-06-02T01:32:20.063Z,10.83
2018-06-02T01:34:47.534Z,9.20
2018-06-02T01:37:15.614Z,8.00
2018-06-02T01:39:43.059Z,9.07
2018-06-02T01:42:10.519Z,8.77
2018-06-02T01:44:39.304Z,10.47
2018-06-02T01:47:06.782Z,12.20
2018-06-02T01:49:34.226Z,8.57
2018-06-02T01:52:01.710Z,9.60
2018-06-02T01:54:30.902Z,7.23
2018-06-02T01:56:59.142Z,7.93
2018-06-02T01:59:27.095Z,8.70
2018-06-02T02:01:54.574Z,8.50
2018-06-02T02:04:22.055Z,9.30
2018-06-02T02:06:49.507Z,12.27
2018-06-02T02:09:16.982Z,8.80
2018-06-02T02:11:45.738Z,7.83
2018-06-02T02:14:14.004Z,8.90
2018-06-02T02:16:41.438Z,13.70
2018-06-02T02:19:08.929Z,10.33
2018-06-02T02:21:36.366Z,11.23
2018-06-02T02:24:04.975Z,8.20
2018-06-02T02:26:32.450Z,9.93
2018-06-02T02:29:00.666Z,8.43
2018-06-02T02:31:28.938Z,9.70
2018-06-02T02:33:56.391Z,13.90
2018-06-02T02:36:23.874Z,10.80
2018-06-02T02:38:52.167Z,8.70
2018-06-02T02:41:19.618Z,12.17
2018-06-02T02:43:47.095Z,10.17
2018-06-02T02:46:14.563Z,11.30
2018-06-02T02:48:42.806Z,9.97
2018-06-02T02:51:10.280Z,10.77
2018-06-02T02:53:37.746Z,12.50
2018-06-02T02:56:05.209Z,11.30
2018-06-02T02:58:33.425Z,11.13
2018-06-02T03:01:00.882Z,11.83
2018-06-02T03:03:28.355Z,10.27
2018-06-02T03:05:55.850Z,13.30
2018-06-02T03:08:23.304Z,11.90
2018-06-02T03:10:52.429Z,11.10
2018-06-02T03:13:20.667Z,9.87
2018-06-02T03:15:48.180Z,10.43
2018-06-02T03:18:16.082Z,11.20
2018-06-02T03:20:43.569Z,12.90
2018-06-02T03:23:12.446Z,10.73
2018-06-02T03:25:40.671Z,8.13
2018-06-02T03:28:08.151Z,10.90
2018-06-02T03:30:35.820Z,8.60
2018-06-02T03:33:03.295Z,8.40
2018-06-02T03:35:31.682Z,8.10
2018-06-02T03:37:59.152Z,8.03
2018-06-02T03:40:27.338Z,8.03
2018-06-02T03:42:54.809Z,7.50
2018-06-02T03:45:22.282Z,11.40
2018-06-02T03:47:49.730Z,10.17
2018-06-02T03:50:18.139Z,9.50
2018-06-02T03:52:46.367Z,10.13
2018-06-02T03:55:14.850Z,9.87
2018-06-02T03:57:42.326Z,11.77
2018-06-02T04:00:09.827Z,12.17
2018-06-02T04:02:37.275Z,11.20
2018-06-02T04:05:04.762Z,11.93
2018-06-02T04:07:33.006Z,15.23
2018-06-02T04:10:00.476Z,13.50
2018-06-02T04:12:27.945Z,12.77
2018-06-02T04:14:56.158Z,11.97
2018-06-02T04:17:23.650Z,11.63
2018-06-02T04:19:51.111Z,12.67
2018-06-02T04:22:18.583Z,10.60
2018-06-02T04:24:46.020Z,13.13
2018-06-02T04:27:13.771Z,13.97
2018-06-02T04:29:41.255Z,12.43
2018-06-02T04:32:08.707Z,11.77
2018-06-02T04:34:36.190Z,12.73
2018-06-02T04:37:04.437Z,10.17
2018-06-02T04:39:31.887Z,11.13
2018-06-02T04:41:59.379Z,13.53
2018-06-02T04:44:27.590Z,12.23
2018-06-02T04:46:55.072Z,13.43
2018-06-02T04:49:22.522Z,13.60
2018-06-02T04:51:50.804Z,9.43
2018-06-02T04:54:18.282Z,13.43
2018-06-02T04:56:45.743Z,9.80
2018-06-02T04:59:13.226Z,16.90
2018-06-02T05:01:42.299Z,12.00
2018-06-02T05:04:10.819Z,13.73
2018-06-02T05:06:38.273Z,14.00
2018-06-02T05:09:05.754Z,13.30
2018-06-02T05:11:33.218Z,17.30
2018-06-02T05:14:00.710Z,17.40
2018-06-02T05:16:29.157Z,15.77
2018-06-02T05:18:56.639Z,13.57
2018-06-02T05:21:24.127Z,13.63
2018-06-02T05:23:52.342Z,17.73
2018-06-02T05:26:19.830Z,16.00
2018-06-02T05:28:47.302Z,14.53
2018-06-02T05:31:14.791Z,16.30
2018-06-02T05:33:42.626Z,14.60
2018-06-02T05:36:10.069Z,13.97
2018-06-02T05:38:37.527Z,12.70
2018-06-02T05:41:04.974Z,14.63
2018-06-02T05:43:32.429Z,13.70
2018-06-02T05:45:59.937Z,15.27
2018-06-02T05:48:27.339Z,12.37
2018-06-02T05:50:54.811Z,15.50
2018-06-02T05:53:22.288Z,12.37
2018-06-02T05:55:50.507Z,14.37
2018-06-02T05:58:18.004Z,16.60
2018-06-02T06:00:45.486Z,15.70
2018-06-02T06:03:13.706Z,12.70
2018-06-02T06:05:41.158Z,17.90
2018-06-02T06:08:08.639Z,14.83
2018-06-02T06:10:36.093Z,14.80
2018-06-02T06:13:03.578Z,12.70
2018-06-02T06:15:31.785Z,11.90
2018-06-02T06:17:59.272Z,17.07
2018-06-02T06:20:26.713Z,12.17
2018-06-02T06:22:54.591Z,13.40
2018-06-02T06:25:22.089Z,13.03
2018-06-02T06:27:50.320Z,13.80
2018-06-02T06:30:17.795Z,12.20
2018-06-02T06:32:46.022Z,10.60
2018-06-02T06:35:13.490Z,11.87
2018-06-02T06:37:40.959Z,19.30
2018-06-02T06:40:08.454Z,13.20
2018-06-02T06:42:35.903Z,14.20
2018-06-02T06:45:03.354Z,12.70
2018-06-02T06:47:30.847Z,15.33
2018-06-02T06:49:59.050Z,14.33
2018-06-02T06:52:26.545Z,14.80
2018-06-02T06:54:54.863Z,16.50
2018-06-02T06:57:24.019Z,13.20
2018-06-02T06:59:51.486Z,12.10
2018-06-02T07:02:19.827Z,12.40
2018-06-02T07:04:47.347Z,12.20
2018-06-02T07:07:15.942Z,13.70
2018-06-02T07:09:43.426Z,15.77
2018-06-02T07:12:10.881Z,16.20
2018-06-02T07:14:38.382Z,13.10
2018-06-02T07:17:05.838Z,11.47
2018-06-02T07:19:33.310Z,15.67
2018-06-02T07:22:01.549Z,12.63
2018-06-02T07:24:29.003Z,13.63
2018-06-02T07:26:56.454Z,15.93
2018-06-02T07:29:23.923Z,13.80
2018-06-02T07:31:52.374Z,13.07
2018-06-02T07:34:19.830Z,11.23
2018-06-02T07:36:47.292Z,15.60
2018-06-02T07:39:14.747Z,10.03
2018-06-02T07:41:42.229Z,12.73
2018-06-02T07:44:09.675Z,11.10
2018-06-02T07:46:37.166Z,10.97
2018-06-02T07:49:05.053Z,10.70
2018-06-02T07:51:33.878Z,9.70
2018-06-02T07:54:01.331Z,11.43
2018-06-02T07:56:28.805Z,9.20
2018-06-02T07:58:56.282Z,9.80
2018-06-02T08:01:23.724Z,10.90
2018-06-02T08:03:51.194Z,8.50
2018-06-02T08:06:19.422Z,8.43
2018-06-02T08:08:46.873Z,7.37
2018-06-02T08:11:14.309Z,8.20
2018-06-02T08:13:42.546Z,6.77
2018-06-02T08:16:10.921Z,8.50
2018-06-02T08:18:39.846Z,9.00
2018-06-02T08:21:07.298Z,6.67
2018-06-02T08:23:34.738Z,6.03
2018-06-02T08:26:02.214Z,6.37
2018-06-02T08:28:29.650Z,5.83
2018-06-02T08:30:57.879Z,6.47
2018-06-02T08:33:25.415Z,5.70
2018-06-02T08:35:52.819Z,6.17
2018-06-02T08:38:21.048Z,6.23
2018-06-02T08:40:49.259Z,6.20
2018-06-02T08:43:16.727Z,6.53
2018-06-02T08:45:44.199Z,7.50
2018-06-02T08:48:11.794Z,6.57
2018-06-02T08:50:39.518Z,6.23
2018-06-02T08:53:08.022Z,5.93
2018-06-02T08:55:35.461Z,5.53
2018-06-02T08:58:02.951Z,5.37
2018-06-02T09:00:30.452Z,5.47
2018-06-02T09:02:58.655Z,6.27
2018-06-02T09:05:26.935Z,4.90
2018-06-02T09:07:54.330Z,5.13
2018-06-02T09:10:22.947Z,5.70
2018-06-02T09:12:50.386Z,5.93
2018-06-02T09:15:17.838Z,5.53
2018-06-02T09:17:46.292Z,5.07
2018-06-02T09:20:13.771Z,5.17
2018-06-02T09:22:41.970Z,6.07
2018-06-02T09:25:09.450Z,4.90
2018-06-02T09:27:37.514Z,3.97
2018-06-02T09:30:05.014Z,3.93
2018-06-02T09:32:32.446Z,4.83
2018-06-02T09:34:59.973Z,5.07
2018-06-02T09:37:27.434Z,4.10
2018-06-02T09:39:54.879Z,3.93
2018-06-02T09:42:22.370Z,3.30
2018-06-02T09:44:50.578Z,3.50
2018-06-02T09:47:18.786Z,3.60
2018-06-02T09:49:46.226Z,3.17
2018-06-02T09:52:13.763Z,3.73
2018-06-02T09:54:42.048Z,5.03
2018-06-02T09:57:10.258Z,4.63
2018-06-02T09:59:37.755Z,3.73
2018-06-02T10:02:05.187Z,3.90
2018-06-02T10:04:34.006Z,3.30
2018-06-02T10:07:01.469Z,3.40
2018-06-02T10:09:28.930Z,3.37
2018-06-02T10:11:56.371Z,3.03
2018-06-02T10:14:23.843Z,2.90
2018-06-02T10:16:51.310Z,2.93
2018-06-02T10:19:19.619Z,2.83
2018-06-02T10:21:47.063Z,3.10
2018-06-02T10:24:15.209Z,3.50
2018-06-02T10:26:43.434Z,3.07
2018-06-02T10:29:10.891Z,2.77
2018-06-02T10:31:38.361Z,3.07
2018-06-02T10:34:05.830Z,2.80
2018-06-02T10:36:33.315Z,2.97
2018-06-02T10:39:00.759Z,3.53
2018-06-02T10:41:28.209Z,2.83
2018-06-02T10:43:55.674Z,2.97
2018-06-02T10:46:23.147Z,2.10
2018-06-02T10:48:51.354Z,2.30
2018-06-02T10:51:18.849Z,2.43
2018-06-02T10:53:47.537Z,2.30
2018-06-02T10:56:15.008Z,2.23
2018-06-02T10:58:42.513Z,3.53
2018-06-02T11:01:09.980Z,1.63
2018-06-02T11:03:37.462Z,1.93
2018-06-02T11:06:05.276Z,3.10
2018-06-02T11:08:33.469Z,3.30
2018-06-02T11:11:00.924Z,2.70
2018-06-02T11:13:28.401Z,1.97
2018-06-02T11:15:55.853Z,2.67
2018-06-02T11:18:23.298Z,2.50
2018-06-02T11:20:51.542Z,3.30
2018-06-02T11:23:20.264Z,3.27
2018-06-02T11:25:49.474Z,3.40
2018-06-02T11:28:16.847Z,2.60
2018-06-02T11:30:44.757Z,2.40
2018-06-02T11:33:12.993Z,2.30
2018-06-02T11:35:40.454Z,1.80
2018-06-02T11:38:08.749Z,1.90
2018-06-02T11:40:36.860Z,2.70
2018-06-02T11:43:04.358Z,2.17
2018-06-02T11:45:31.795Z,2.80
2018-06-02T11:47:59.272Z,2.73
2018-06-02T11:50:26.959Z,2.70
2018-06-02T11:52:55.201Z,2.57
2018-06-02T11:55:22.650Z,2.60
2018-06-02T11:57:50.136Z,2.10
2018-06-02T12:00:17.974Z,2.30
2018-06-02T12:02:45.438Z,1.60
2018-06-02T12:05:12.911Z,2.00
2018-06-02T12:07:40.740Z,2.30
2018-06-02T12:10:08.187Z,3.30
2018-06-02T12:12:35.643Z,2.40
2018-06-02T12:15:03.148Z,1.70
2018-06-02T12:17:32.222Z,2.50
2018-06-02T12:19:59.670Z,1.83
2018-06-02T12:22:27.449Z,2.23
2018-06-02T12:24:54.921Z,2.20
2018-06-02T12:27:22.390Z,2.03
2018-06-02T12:29:49.865Z,1.90
2018-06-02T12:32:18.108Z,2.10
2018-06-02T12:34:45.643Z,2.23
2018-06-02T12:37:13.802Z,1.70
2018-06-02T12:39:41.246Z,1.70
2018-06-02T12:42:08.694Z,1.80
2018-06-02T12:44:37.049Z,2.40
2018-06-02T12:47:05.173Z,2.10
2018-06-02T12:49:32.650Z,3.13
2018-06-02T12:52:00.237Z,2.00
2018-06-02T12:54:27.675Z,1.70
2018-06-02T12:56:55.150Z,1.90
2018-06-02T12:59:23.257Z,1.80
2018-06-02T13:01:50.711Z,1.77
2018-06-02T13:04:18.214Z,1.47
2018-06-02T13:06:45.810Z,1.77
2018-06-02T13:09:13.240Z,1.80
2018-06-02T13:11:40.691Z,1.70
2018-06-02T13:14:08.914Z,1.73
2018-06-02T13:16:36.390Z,1.57
2018-06-02T13:19:03.877Z,1.30
2018-06-02T13:21:31.329Z,1.40
2018-06-02T13:23:58.778Z,1.10
2018-06-02T13:26:26.226Z,1.27
2018-06-02T13:28:54.070Z,1.10
2018-06-02T13:31:23.006Z,1.53
2018-06-02T13:33:50.453Z,1.20
2018-06-02T13:36:17.906Z,1.33
2018-06-02T13:38:45.375Z,1.50
2018-06-02T13:41:12.838Z,2.40
2018-06-02T13:43:40.381Z,2.00
2018-06-02T13:46:07.838Z,1.23
2018-06-02T13:48:35.305Z,1.50
2018-06-02T13:51:03.418Z,1.53
2018-06-02T13:53:31.638Z,1.33
2018-06-02T13:55:59.646Z,1.27
2018-06-02T13:58:27.086Z,1.30
2018-06-02T14:00:55.810Z,1.33
2018-06-02T14:03:24.010Z,1.20
2018-06-02T14:05:51.464Z,1.10
2018-06-02T14:08:18.976Z,1.50
2018-06-02T14:10:46.512Z,0.90
2018-06-02T14:13:13.976Z,1.20
2018-06-02T14:15:41.530Z,1.10
2018-06-02T14:18:09.001Z,1.30
2018-06-02T14:20:36.466Z,1.10
2018-06-02T14:23:03.941Z,1.30
2018-06-02T14:25:32.221Z,1.90
2018-06-02T14:28:00.542Z,2.10
2018-06-02T14:30:28.038Z,1.23
2018-06-02T14:32:56.075Z,1.27
2018-06-02T14:35:23.526Z,2.63
2018-06-02T14:37:51.414Z,1.20
2018-06-02T14:40:18.910Z,1.00
2018-06-02T14:42:47.141Z,1.20
2018-06-02T14:45:14.614Z,1.60
2018-06-02T14:47:42.058Z,1.20
2018-06-02T14:50:09.506Z,1.30
2018-06-02T14:52:37.094Z,1.10
2018-06-02T14:55:04.593Z,1.20
2018-06-02T14:57:32.357Z,1.50
2018-06-02T14:59:59.928Z,1.13
2018-06-02T15:02:27.450Z,1.60
2018-06-02T15:04:55.674Z,1.00
2018-06-02T15:07:23.109Z,1.10
2018-06-02T15:09:50.948Z,1.40
2018-06-02T15:12:19.153Z,1.73
2018-06-02T15:14:46.626Z,1.00
2018-06-02T15:17:14.100Z,1.30
2018-06-02T15:19:41.672Z,1.30
2018-06-02T15:22:09.150Z,1.60
2018-06-02T15:24:37.356Z,1.43
2018-06-02T15:27:04.819Z,1.40
2018-06-02T15:29:32.255Z,1.57
2018-06-02T15:32:00.649Z,1.20
2018-06-02T15:34:28.127Z,1.57
2018-06-02T15:36:55.602Z,1.47
2018-06-02T15:39:23.074Z,1.43
2018-06-02T15:41:50.551Z,1.07
2018-06-02T15:44:18.774Z,1.33
2018-06-02T15:46:46.209Z,1.40
2018-06-02T15:49:13.693Z,1.37
2018-06-02T15:51:41.804Z,2.63
2018-06-02T15:54:10.035Z,1.83
2018-06-02T15:56:37.513Z,2.50
2018-06-02T15:59:04.966Z,2.60
2018-06-02T16:01:32.433Z,2.67
2018-06-02T16:03:59.911Z,3.03
2018-06-02T16:06:28.145Z,2.27
2018-06-02T16:08:55.626Z,2.30
2018-06-02T16:11:23.578Z,2.30
2018-06-02T16:13:51.038Z,7.47
2018-06-02T16:16:58.788Z,3.00
2018-06-02T16:19:27.056Z,2.90
2018-06-02T16:21:55.317Z,3.00
2018-06-02T16:24:24.919Z,2.50
2018-06-02T16:26:53.198Z,2.23
2018-06-02T16:29:21.382Z,2.57
2018-06-02T16:31:50.611Z,4.33
2018-06-02T16:34:20.687Z,2.17
2018-06-02T16:36:48.868Z,2.40
2018-06-02T16:39:17.777Z,2.60
2018-06-02T16:41:45.973Z,2.70
2018-06-02T16:44:14.182Z,2.47
2018-06-02T16:46:42.376Z,2.63
2018-06-02T16:49:10.698Z,3.30
2018-06-02T16:51:38.932Z,3.63
2018-06-02T16:54:08.162Z,2.53
2018-06-02T16:56:36.350Z,2.63
2018-06-02T16:59:05.069Z,2.33
2018-06-02T17:01:34.161Z,2.67
2018-06-02T17:04:02.350Z,3.00
2018-06-02T17:06:30.645Z,2.73
2018-06-02T17:09:00.088Z,4.60
2018-06-02T17:11:29.234Z,5.30
2018-06-02T17:13:58.439Z,2.53
2018-06-02T17:16:26.658Z,2.60
2018-06-02T17:18:55.387Z,2.40
2018-06-02T17:21:24.742Z,2.50
2018-06-02T17:23:52.961Z,2.53
2018-06-02T17:26:21.163Z,2.77
2018-06-02T17:28:50.233Z,2.63
2018-06-02T17:31:18.474Z,2.80
2018-06-02T17:33:46.681Z,2.33
2018-06-02T17:36:14.882Z,2.80
2018-06-02T17:38:43.065Z,2.30
2018-06-02T17:41:11.306Z,2.40
2018-06-02T17:43:39.553Z,4.40
2018-06-02T17:46:08.327Z,2.60
2018-06-02T17:48:36.498Z,2.90
2018-06-02T17:51:04.774Z,2.43
2018-06-02T17:53:32.921Z,2.80
2018-06-02T17:56:01.526Z,3.40
2018-06-02T17:58:29.746Z,3.17
2018-06-02T18:00:57.961Z,2.90
2018-06-02T18:03:26.945Z,3.10
2018-06-02T18:05:55.178Z,2.80
2018-06-02T18:08:23.365Z,2.60
2018-06-02T18:10:52.170Z,2.93
2018-06-02T18:13:20.899Z,3.47
2018-06-02T18:15:50.101Z,3.27
2018-06-02T18:18:19.718Z,2.80
2018-06-02T18:20:48.158Z,3.33
2018-06-02T18:23:18.611Z,7.40
2018-06-02T18:25:46.786Z,3.33
2018-06-02T18:28:15.019Z,4.97
2018-06-02T18:30:44.252Z,3.27
2018-06-02T18:33:16.489Z,3.50
2018-06-02T18:35:45.498Z,3.10
2018-06-02T18:38:15.317Z,3.30
2018-06-02T18:40:43.830Z,3.07
2018-06-02T18:43:12.079Z,2.87
2018-06-02T18:45:40.276Z,8.17
2018-06-02T18:48:08.506Z,3.47
2018-06-02T18:50:36.481Z,4.33
2018-06-02T18:53:04.726Z,2.87
2018-06-02T18:55:32.967Z,3.13
2018-06-02T18:58:01.118Z,6.60
2018-06-02T19:00:29.321Z,3.03
2018-06-02T19:02:57.526Z,3.27
2018-06-02T19:05:25.718Z,3.80
2018-06-02T19:07:53.980Z,3.43
2018-06-02T19:10:22.215Z,3.60
2018-06-02T19:12:50.445Z,3.43
2018-06-02T19:15:19.375Z,5.03
2018-06-02T19:17:47.510Z,3.43
2018-06-02T19:20:15.716Z,3.40
2018-06-02T19:22:43.918Z,3.10
2018-06-02T19:25:12.105Z,3.03
2018-06-02T19:27:40.753Z,5.70
2018-06-02T19:30:08.958Z,4.10
2018-06-02T19:32:37.159Z,4.60
2018-06-02T19:35:05.126Z,4.00
2018-06-02T19:37:33.666Z,3.63
2018-06-02T19:40:02.602Z,7.13
2018-06-02T19:42:30.796Z,5.37
2018-06-02T19:44:58.966Z,5.00
2018-06-02T19:47:27.169Z,3.30
2018-06-02T19:49:56.097Z,7.40
2018-06-02T19:52:24.314Z,4.93
2018-06-02T19:54:52.929Z,5.97
2018-06-02T19:57:21.152Z,6.60
2018-06-02T19:59:49.357Z,5.37
2018-06-02T20:02:19.146Z,6.67
2018-06-02T20:04:47.347Z,5.73
2018-06-02T20:07:15.537Z,9.07
2018-06-02T20:09:44.030Z,9.40
2018-06-02T20:12:12.258Z,11.07
2018-06-02T20:14:40.515Z,6.47
2018-06-02T20:17:08.439Z,5.53
2018-06-02T20:19:36.666Z,6.20
2018-06-02T20:22:05.843Z,10.20
2018-06-02T20:24:34.056Z,11.77
2018-06-02T20:27:02.246Z,9.90
2018-06-02T20:29:30.394Z,20.77
2018-06-02T20:31:58.650Z,10.67
2018-06-02T20:34:26.850Z,8.10
2018-06-02T20:36:55.090Z,5.60
2018-06-02T20:39:23.261Z,27.93
2018-06-02T20:41:52.047Z,7.03
2018-06-02T20:44:20.904Z,6.47
2018-06-02T20:46:49.102Z,5.33
2018-06-02T20:49:17.316Z,6.77
2018-06-02T20:51:45.517Z,4.47
2018-06-02T20:54:14.375Z,5.70
2018-06-02T20:56:42.597Z,4.90
2018-06-02T20:59:10.824Z,6.43
2018-06-02T21:01:39.198Z,6.03
2018-06-02T21:04:07.370Z,5.53
2018-06-02T21:06:35.654Z,5.00
2018-06-02T21:09:05.742Z,5.80
2018-06-02T21:11:34.289Z,5.20
2018-06-02T21:14:04.026Z,5.93
2018-06-02T21:16:33.059Z,6.43
2018-06-02T21:19:01.222Z,5.90
2018-06-02T21:21:29.830Z,6.50
2018-06-02T21:23:58.046Z,11.90
2018-06-02T21:26:26.268Z,5.63
2018-06-02T21:28:54.535Z,5.93
2018-06-02T21:31:22.769Z,6.47
2018-06-02T21:33:51.304Z,7.10
2018-06-02T21:36:19.507Z,7.40
2018-06-02T21:38:47.809Z,5.97
2018-06-02T21:41:16.059Z,6.53
2018-06-02T21:43:44.294Z,7.50
2018-06-02T21:46:12.512Z,7.77
2018-06-02T21:48:40.661Z,6.50
2018-06-02T21:51:10.450Z,6.60
2018-06-02T21:53:38.631Z,6.60
2018-06-02T21:56:06.931Z,6.60
2018-06-02T21:58:35.590Z,6.90
2018-06-02T22:01:04.587Z,6.30
2018-06-02T22:03:33.538Z,6.20
2018-06-02T22:06:01.862Z,6.03
2018-06-02T22:08:30.130Z,6.30
2018-06-02T22:10:58.387Z,7.13
2018-06-02T22:13:26.593Z,6.63
2018-06-02T22:15:54.910Z,6.23
2018-06-02T22:18:23.176Z,6.83
2018-06-02T22:20:51.353Z,6.50
2018-06-02T22:23:20.460Z,6.57
2018-06-02T22:25:48.693Z,6.23
2018-06-02T22:28:16.902Z,7.10
2018-06-02T22:30:45.133Z,8.73
2018-06-02T22:33:13.603Z,6.43
2018-06-02T22:35:41.793Z,5.53
2018-06-02T22:38:10.026Z,6.70
2018-06-02T22:40:39.559Z,5.77
2018-06-02T22:43:08.608Z,6.17
2018-06-02T22:45:37.809Z,6.57
2018-06-02T22:48:05.975Z,7.23
2018-06-02T22:50:34.247Z,6.63
2018-06-02T22:53:02.457Z,6.63
2018-06-02T22:55:31.050Z,6.60
2018-06-02T22:57:59.225Z,10.10
2018-06-02T23:00:27.497Z,6.70
2018-06-02T23:02:55.734Z,6.03
2018-06-02T23:05:24.570Z,6.87
2018-06-02T23:07:53.126Z,6.57
2018-06-02T23:10:21.982Z,6.77
2018-06-02T23:12:50.581Z,6.70
2018-06-02T23:15:19.634Z,6.73
2018-06-02T23:17:48.594Z,7.50
2018-06-02T23:20:16.810Z,7.00
2018-06-02T23:22:45.031Z,6.70
2018-06-02T23:25:13.354Z,6.33
2018-06-02T23:27:41.519Z,6.80
2018-06-02T23:30:09.746Z,9.57
2018-06-02T23:32:37.952Z,6.90
2018-06-02T23:35:06.166Z,6.77
2018-06-02T23:37:34.377Z,6.50
2018-06-02T23:40:02.634Z,5.47
2018-06-02T23:42:30.810Z,8.70
2018-06-02T23:44:59.910Z,6.40
2018-06-02T23:47:28.185Z,6.90
2018-06-02T23:49:57.169Z,7.30
2018-06-02T23:52:25.368Z,8.60
2018-06-02T23:54:53.606Z,7.80
2018-06-02T23:57:21.810Z,7.20
2018-06-02T23:59:50.466Z,6.00
